createdAt,value
2018-10-11T00:03:51.430Z,12.77
2018-10-11T00:08:49.494Z,11.97
2018-10-11T00:13:46.233Z,12.03
2018-10-11T00:18:42.972Z,12.43
2018-10-11T00:23:39.743Z,12.50
2018-10-11T00:28:36.626Z,12.30
2018-10-11T00:33:33.370Z,11.30
2018-10-11T00:38:30.149Z,11.07
2018-10-11T00:43:26.910Z,11.87
2018-10-11T00:48:23.673Z,12.20
2018-10-11T00:53:20.418Z,11.70
2018-10-11T00:58:17.183Z,11.93
2018-10-11T01:03:13.999Z,11.67
2018-10-11T01:08:10.802Z,12.37
2018-10-11T01:13:07.555Z,11.30
2018-10-11T01:18:04.358Z,11.93
2018-10-11T01:23:01.092Z,11.60
2018-10-11T01:27:57.912Z,11.10
2018-10-11T01:32:54.746Z,11.47
2018-10-11T01:37:51.518Z,12.27
2018-10-11T01:42:52.928Z,12.47
2018-10-11T01:47:49.671Z,12.23
2018-10-11T01:52:46.453Z,12.10
2018-10-11T01:57:43.221Z,11.97
2018-10-11T02:02:40.084Z,11.20
2018-10-11T02:07:38.565Z,11.47
2018-10-11T02:12:36.877Z,11.10
2018-10-11T02:17:33.659Z,10.73
2018-10-11T02:22:30.400Z,10.63
2018-10-11T02:27:27.415Z,11.93
2018-10-11T02:32:24.238Z,11.90
2018-10-11T02:37:21.000Z,12.40
2018-10-11T02:42:17.765Z,11.77
2018-10-11T02:47:14.526Z,12.90
2018-10-11T02:52:11.487Z,11.87
2018-10-11T02:58:12.929Z,12.30
2018-10-11T03:03:11.260Z,12.30
2018-10-11T03:08:09.201Z,12.00
2018-10-11T03:13:07.297Z,11.90
2018-10-11T03:18:04.006Z,13.17
2018-10-11T03:23:00.850Z,13.20
2018-10-11T03:28:00.430Z,12.30
2018-10-11T03:32:57.154Z,13.03
2018-10-11T03:37:54.536Z,13.60
2018-10-11T03:42:51.317Z,12.43
2018-10-11T03:47:48.021Z,12.20
2018-10-11T03:52:44.766Z,12.53
2018-10-11T03:57:41.718Z,11.53
2018-10-11T04:02:38.477Z,12.13
2018-10-11T04:07:35.410Z,11.87
2018-10-11T04:12:32.095Z,13.17
2018-10-11T04:17:28.849Z,12.00
2018-10-11T04:22:25.647Z,12.97
2018-10-11T04:27:22.489Z,11.57
2018-10-11T04:32:19.166Z,12.20
2018-10-11T04:37:15.907Z,12.07
2018-10-11T04:42:12.591Z,11.70
2018-10-11T04:47:09.365Z,12.53
2018-10-11T04:52:06.104Z,12.53
2018-10-11T04:57:02.882Z,11.80
2018-10-11T05:01:59.666Z,11.87
2018-10-11T05:06:56.349Z,12.20
2018-10-11T05:11:53.195Z,12.40
2018-10-11T05:16:49.926Z,11.53
2018-10-11T05:21:46.689Z,10.93
2018-10-11T05:26:43.394Z,12.07
2018-10-11T05:31:41.298Z,10.53
2018-10-11T05:36:38.041Z,11.40
2018-10-11T05:41:35.242Z,11.47
2018-10-11T05:46:32.582Z,10.53
2018-10-11T05:51:29.877Z,11.37
2018-10-11T05:56:28.177Z,10.70
2018-10-11T06:01:24.905Z,10.13
2018-10-11T06:06:21.686Z,10.67
2018-10-11T06:11:20.714Z,10.33
2018-10-11T06:16:17.539Z,9.60
2018-10-11T06:21:14.806Z,10.60
2018-10-11T06:26:12.100Z,9.00
2018-10-11T06:31:08.884Z,11.17
2018-10-11T06:36:05.685Z,10.10
2018-10-11T06:41:02.424Z,9.47
2018-10-11T06:45:59.282Z,9.40
2018-10-11T06:50:56.235Z,9.47
2018-10-11T06:55:53.029Z,9.27
2018-10-11T07:00:49.811Z,9.23
2018-10-11T07:05:48.451Z,8.63
2018-10-11T07:10:45.259Z,9.20
2018-10-11T07:15:42.186Z,8.77
2018-10-11T07:20:38.900Z,8.37
2018-10-11T07:25:35.626Z,8.97
2018-10-11T07:30:32.424Z,8.77
2018-10-11T07:35:29.389Z,8.87
2018-10-11T07:40:26.131Z,8.77
2018-10-11T07:45:22.874Z,8.37
2018-10-11T07:50:19.746Z,7.93
2018-10-11T07:55:16.602Z,8.40
2018-10-11T08:00:13.353Z,8.88
2018-10-11T08:05:10.268Z,7.95
2018-10-11T08:10:07.285Z,8.13
2018-10-11T08:15:04.494Z,8.00
2018-10-11T08:20:01.656Z,7.10
2018-10-11T08:24:59.487Z,7.33
2018-10-11T08:29:56.362Z,7.55
2018-10-11T08:34:53.289Z,6.80
2018-10-11T08:39:50.183Z,6.95
2018-10-11T08:44:47.835Z,7.17
2018-10-11T08:49:44.608Z,6.20
2018-10-11T08:54:51.766Z,7.28
2018-10-11T08:59:48.819Z,6.40
2018-10-11T09:04:46.011Z,6.22
2018-10-11T09:09:43.648Z,5.80
2018-10-11T09:14:40.403Z,5.62
2018-10-11T09:19:37.201Z,6.37
2018-10-11T09:24:33.994Z,6.12
2018-10-11T09:29:30.956Z,5.70
2018-10-11T09:34:27.905Z,5.20
2018-10-11T09:39:24.907Z,5.53
2018-10-11T09:44:21.825Z,5.42
2018-10-11T09:49:18.859Z,5.17
2018-10-11T09:54:15.857Z,5.08
2018-10-11T09:59:12.907Z,5.30
2018-10-11T10:04:09.734Z,5.15
2018-10-11T10:09:06.684Z,5.22
2018-10-11T10:14:03.549Z,5.58
2018-10-11T10:19:00.524Z,5.08
2018-10-11T10:23:57.245Z,5.42
2018-10-11T10:28:53.987Z,5.15
2018-10-11T10:33:50.748Z,4.72
2018-10-11T10:38:47.461Z,5.25
2018-10-11T10:43:44.202Z,5.25
2018-10-11T10:48:41.020Z,6.03
2018-10-11T10:53:37.711Z,5.10
2018-10-11T10:58:34.726Z,5.05
2018-10-11T11:03:31.520Z,5.03
2018-10-11T11:08:28.215Z,5.08
2018-10-11T11:13:24.970Z,4.87
2018-10-11T11:18:21.697Z,5.08
2018-10-11T11:23:18.461Z,4.85
2018-10-11T11:28:15.192Z,5.30
2018-10-11T11:33:11.884Z,4.35
2018-10-11T11:38:08.740Z,4.60
2018-10-11T11:43:05.723Z,4.65
2018-10-11T11:48:02.389Z,4.30
2018-10-11T11:52:59.084Z,4.37
2018-10-11T11:57:55.872Z,4.37
2018-10-11T12:02:52.880Z,4.25
2018-10-11T12:07:49.623Z,4.50
2018-10-11T12:12:51.191Z,4.17
2018-10-11T12:17:47.929Z,3.85
2018-10-11T12:22:44.668Z,4.12
2018-10-11T12:27:41.581Z,4.00
2018-10-11T12:32:38.293Z,4.00
2018-10-11T12:37:35.058Z,4.42
2018-10-11T12:42:31.816Z,4.20
2018-10-11T12:47:28.599Z,4.22
2018-10-11T12:52:25.616Z,4.35
2018-10-11T12:57:22.841Z,3.87
2018-10-11T13:02:19.469Z,3.90
2018-10-11T13:07:16.195Z,3.98
2018-10-11T13:12:12.911Z,4.40
2018-10-11T13:17:09.837Z,4.67
2018-10-11T13:22:06.550Z,4.55
2018-10-11T13:27:03.275Z,4.17
2018-10-11T13:32:00.063Z,4.08
2018-10-11T13:36:56.805Z,4.62
2018-10-11T13:41:53.682Z,4.70
2018-10-11T13:46:50.383Z,4.30
2018-10-11T13:51:47.061Z,4.75
2018-10-11T13:56:43.834Z,4.47
2018-10-11T14:01:40.639Z,4.40
2018-10-11T14:06:37.330Z,4.53
2018-10-11T14:11:34.112Z,4.45
2018-10-11T14:16:32.086Z,5.20
2018-10-11T14:21:29.004Z,4.60
2018-10-11T14:26:25.785Z,4.80
2018-10-11T14:31:23.237Z,4.40
2018-10-11T14:36:20.661Z,5.10
2018-10-11T14:41:17.418Z,4.65
2018-10-11T14:46:14.336Z,4.40
2018-10-11T14:51:11.359Z,4.60
2018-10-11T14:56:08.278Z,5.20
2018-10-11T15:01:05.018Z,5.30
2018-10-11T15:06:01.764Z,4.97
2018-10-11T15:10:58.578Z,5.33
2018-10-11T15:15:55.327Z,5.97
2018-10-11T15:20:52.024Z,5.90
2018-10-11T15:25:49.679Z,6.65
2018-10-11T15:30:46.402Z,7.05
2018-10-11T15:35:43.159Z,6.85
2018-10-11T15:40:39.906Z,6.92
2018-10-11T15:45:36.637Z,7.08
2018-10-11T15:50:33.363Z,7.30
2018-10-11T15:55:30.082Z,29.05
2018-10-11T16:00:26.888Z,7.83
2018-10-11T16:05:23.719Z,7.58
2018-10-11T16:10:20.479Z,8.30
2018-10-11T16:15:17.243Z,8.35
2018-10-11T16:20:13.987Z,10.60
2018-10-11T16:25:10.811Z,8.88
2018-10-11T16:30:07.610Z,9.05
2018-10-11T16:35:04.300Z,7.55
2018-10-11T16:40:01.006Z,9.65
2018-10-11T16:44:57.723Z,9.90
2018-10-11T16:49:54.542Z,9.60
2018-10-11T16:54:51.270Z,9.10
2018-10-11T16:59:48.069Z,9.43
2018-10-11T17:04:44.762Z,10.10
2018-10-11T17:09:41.467Z,9.28
2018-10-11T17:14:38.254Z,8.23
2018-10-11T17:19:34.943Z,8.77
2018-10-11T17:24:31.727Z,9.30
2018-10-11T17:29:28.613Z,8.97
2018-10-11T17:34:25.381Z,8.37
2018-10-11T17:39:22.217Z,8.67
2018-10-11T17:44:18.997Z,8.17
2018-10-11T17:49:15.821Z,9.00
2018-10-11T17:54:12.835Z,11.43
2018-10-11T17:59:09.583Z,16.70
2018-10-11T18:04:06.449Z,14.23
2018-10-11T18:09:04.003Z,15.13
2018-10-11T18:14:00.864Z,12.63
2018-10-11T18:18:57.662Z,11.10
2018-10-11T18:23:54.493Z,11.10
2018-10-11T18:28:51.264Z,11.57
2018-10-11T18:33:48.035Z,12.27
2018-10-11T18:38:44.731Z,12.27
2018-10-11T18:43:41.593Z,10.70
2018-10-11T18:48:38.287Z,11.03
2018-10-11T18:53:35.067Z,11.97
2018-10-11T18:58:31.776Z,27.87
2018-10-11T19:03:28.416Z,18.60
2018-10-11T19:08:25.119Z,17.47
2018-10-11T19:13:21.853Z,17.03
2018-10-11T19:18:18.753Z,15.60
2018-10-11T19:23:15.433Z,14.30
2018-10-11T19:28:12.359Z,15.73
2018-10-11T19:33:09.097Z,12.10
2018-10-11T19:38:06.262Z,12.60
2018-10-11T19:43:03.016Z,11.60
2018-10-11T19:47:59.782Z,12.50
2018-10-11T19:52:56.483Z,12.43
2018-10-11T19:57:53.321Z,13.50
2018-10-11T20:02:50.077Z,14.40
2018-10-11T20:07:46.850Z,13.70
2018-10-11T20:12:43.656Z,14.03
2018-10-11T20:17:40.379Z,15.10
2018-10-11T20:22:37.171Z,15.20
2018-10-11T20:27:33.889Z,16.03
2018-10-11T20:32:30.744Z,15.30
2018-10-11T20:37:27.684Z,14.47
2018-10-11T20:42:24.405Z,15.13
2018-10-11T20:47:21.183Z,14.53
2018-10-11T20:52:17.952Z,14.17
2018-10-11T20:57:14.707Z,14.97
2018-10-11T21:02:11.654Z,15.10
2018-10-11T21:07:08.430Z,14.67
2018-10-11T21:12:05.421Z,15.33
2018-10-11T21:17:02.113Z,16.33
2018-10-11T21:21:58.859Z,16.67
2018-10-11T21:26:55.574Z,17.90
2018-10-11T21:31:52.308Z,18.27
2018-10-11T21:36:55.671Z,19.20
2018-10-11T21:41:52.440Z,21.57
2018-10-11T21:46:49.211Z,20.90
2018-10-11T21:51:45.867Z,14.90
2018-10-11T21:56:42.692Z,12.97
2018-10-11T22:01:39.461Z,13.60
2018-10-11T22:06:36.232Z,15.27
2018-10-11T22:11:32.980Z,18.20
2018-10-11T22:16:29.681Z,16.47
2018-10-11T22:21:26.409Z,17.37
2018-10-11T22:26:23.177Z,19.60
2018-10-11T22:31:19.934Z,17.03
2018-10-11T22:36:16.662Z,19.83
2018-10-11T22:41:13.483Z,24.07
2018-10-11T22:46:10.904Z,24.70
2018-10-11T22:51:07.707Z,20.13
2018-10-11T22:56:04.483Z,21.10
2018-10-11T23:01:01.231Z,24.50
2018-10-11T23:05:57.907Z,25.83
2018-10-11T23:10:54.583Z,27.00
2018-10-11T23:15:51.308Z,25.10
2018-10-11T23:20:48.064Z,21.83
2018-10-11T23:25:44.786Z,20.57
2018-10-11T23:30:41.642Z,22.30
2018-10-11T23:35:38.342Z,23.50
2018-10-11T23:40:35.096Z,26.23
2018-10-11T23:45:31.772Z,25.60
2018-10-11T23:50:28.480Z,26.83
2018-10-11T23:55:25.257Z,27.90
